map of KCUT home
KCUT - Airport
Location
City:  Custer, South Dakota, United States
Name:Custer County Airport
ICAO:KCUT
FAA LID:CUT

Details
Type:Airport (Airfield)
Use:Public/Civil
Latitude:4344'01"N (43.733660)
Longitude:10337'10"W (-103.619498)
Datum:WGS 1984
Elevation:5602 ft (1707 m)
Variation:7.68E (WMM2015v2 magnetic declination)
-0.09 annual change
Runways:1
Longest:5498 × 60 ft (1676 × 18.5 m), paved

Time
Time Zone:UTC-6 (DST-5)
Local Time:

Weather
METAR:KCUT 041353Z AUTO VRB06KT 10SM OVC006 M16/M18 A2967 RMK AO2 SLP120 T11611183

Related Locations
Nearby:
Farthest:RRG: 10616 mi / 17086 km
Plaine Corail [Sir Gatan Duval Airport (Plaine Corail Airport)], Rodrigues Island, MU

Find:

   beyond  
but within

Other Information
Maps:
NOTAMs:
Links:
Sources:

  
  • flag of United States
  • flag of South Dakota
  

Sectional Chart

Flight Planning
at skyvector.com

Satellite Image

Google Maps Satellite view

 

Copyright © 2004-2019 Karl L. Swartz. All rights reserved.
The Great Circle Mapper name and logo are trademarks of the Great Circle Mapper.
All other trademarks mentioned herein belong to their respective owners.
Please see credits for attibutions and further copyright information.

  Follow gcmap on Facebook Follow gcmap on Twitter GCmap on LinkedIn

hCard Microformat

Geo Microformat